Time;durP1;ratioP1;P1;durP2;ratioP2;P2;SDS_P1;SDS_P2;PMS_P1;PMS_P2;Temp;Humidity;BMP_temperature;BMP_pressure;BME280_temperature;BME280_humidity;BME280_pressure;Samples;Min_cycle;Max_cycle;Signal;HPM_P1;HPM_P2
2022/11/14 00:01:31;;;;;;;;;;;8.10;83.20;;;-151.14;100.00;62537.16;5111517;28;19926;-81
2022/11/14 00:04:18;;;;;;;;;;;8.00;83.20;;;-151.14;100.00;62537.16;5093598;28;19926;-81
2022/11/14 00:07:04;;;;;;;;;;;8.00;83.00;;;-151.14;100.00;62537.16;5111334;28;19926;-81
2022/11/14 00:09:51;;;;;;;;;;;8.00;83.10;;;-151.14;100.00;62537.16;5112130;28;19926;-80
2022/11/14 00:12:37;;;;;;;;;;;8.00;83.20;;;-151.14;100.00;62537.16;5111865;28;20088;-81
2022/11/14 00:15:25;;;;;;;;;;;8.00;83.10;;;-151.14;100.00;62537.16;5091006;28;19921;-81
2022/11/14 00:18:12;;;;;;;;;;;8.00;83.10;;;-151.14;100.00;62537.16;5090346;28;19920;-81
2022/11/14 00:20:58;;;;;;;;;;;8.00;83.00;;;-151.14;100.00;62537.16;5091441;28;19920;-81
2022/11/14 00:23:45;;;;;;;;;;;8.00;83.20;;;-151.14;100.00;62537.16;5090020;28;19920;-81
2022/11/14 00:26:32;;;;;;;;;;;8.00;83.20;;;-151.14;100.00;62537.16;5091051;28;19920;-81
2022/11/14 00:29:18;;;;;;;;;;;8.00;83.20;;;-151.14;100.00;62537.16;5091268;28;19920;-81
2022/11/14 00:32:07;;;;;;;;;;;8.00;83.20;;;-151.14;100.00;62537.16;5090186;28;19932;-81
2022/11/14 00:34:53;;;;;;;;;;;8.00;83.20;;;-151.14;100.00;62537.16;5089477;28;20230;-81
2022/11/14 00:37:40;;;;;;;;;;;8.00;83.10;;;-151.14;100.00;62537.16;5091275;28;19920;-81
2022/11/14 00:40:26;;;;;;;;;;;8.00;83.20;;;-151.14;100.00;62537.16;5090278;28;19920;-81
2022/11/14 00:43:13;;;;;;;;;;;8.00;83.30;;;-151.14;100.00;62537.16;5089963;28;20119;-81
2022/11/14 00:45:59;;;;;;;;;;;8.00;83.20;;;-151.14;100.00;62537.16;5089570;28;19926;-81
2022/11/14 00:48:47;;;;;;;;;;;8.00;83.20;;;-151.14;100.00;62537.16;5091205;28;19920;-81
2022/11/14 00:51:34;;;;;;;;;;;8.00;83.30;;;-151.14;100.00;62537.16;5089958;28;20097;-81
2022/11/14 00:54:21;;;;;;;;;;;8.00;83.30;;;-151.14;100.00;62537.16;5091011;28;19921;-81
2022/11/14 00:57:08;;;;;;;;;;;8.00;83.30;;;-151.14;100.00;62537.16;5089770;28;19920;-81
2022/11/14 00:59:54;;;;;;;;;;;8.00;83.20;;;-151.14;100.00;62537.16;5091124;28;19920;-81
2022/11/14 01:02:41;;;;;;;;;;;8.00;83.40;;;-151.14;100.00;62537.16;5089871;28;19934;-81
2022/11/14 01:05:29;;;;;;;;;;;8.00;83.30;;;-151.14;100.00;62537.16;5089177;28;19920;-81
2022/11/14 01:08:16;;;;;;;;;;;8.00;83.30;;;-151.14;100.00;62537.16;5090880;28;19920;-81
2022/11/14 01:11:09;;;;;;;;;;;8.00;83.40;;;-151.14;100.00;62537.16;5089778;28;19920;-81
2022/11/14 01:13:55;;;;;;;;;;;8.00;83.10;;;-151.14;100.00;62537.16;5092731;28;19920;-81
2022/11/14 01:16:42;;;;;;;;;;;8.00;83.30;;;-151.14;100.00;62537.16;5093941;28;19920;-81
2022/11/14 01:19:29;;;;;;;;;;;7.90;83.20;;;-151.14;100.00;62537.16;5093166;28;19921;-81
2022/11/14 01:22:17;;;;;;;;;;;7.90;83.40;;;-151.14;100.00;62537.16;5093010;28;19920;-81
2022/11/14 01:25:03;;;;;;;;;;;7.90;83.20;;;-151.14;100.00;62537.16;5092502;28;19920;-81
2022/11/14 01:27:50;;;;;;;;;;;7.90;83.40;;;-151.14;100.00;62537.16;5092884;28;19928;-81
2022/11/14 01:30:37;;;;;;;;;;;7.90;83.30;;;-151.14;100.00;62537.16;5093064;28;20150;-81
2022/11/14 01:33:23;;;;;;;;;;;7.90;83.30;;;-151.14;100.00;62537.16;5092905;28;20097;-81
2022/11/14 01:36:10;;;;;;;;;;;7.90;83.20;;;-151.14;100.00;62537.16;5092565;28;19920;-81
2022/11/14 01:38:58;;;;;;;;;;;7.90;83.30;;;-151.14;100.00;62537.16;5093928;28;19920;-81
2022/11/14 01:41:44;;;;;;;;;;;7.90;83.20;;;-151.14;100.00;62537.16;5093963;28;19920;-81
2022/11/14 01:44:47;;;;;;;;;;;7.90;83.30;;;-151.14;100.00;62537.16;5092465;28;19920;-81
2022/11/14 01:47:34;;;;;;;;;;;7.90;83.30;;;-151.14;100.00;62537.16;5093777;28;20097;-81
2022/11/14 01:50:20;;;;;;;;;;;7.90;83.30;;;-151.14;100.00;62537.16;5092678;28;20230;-81
2022/11/14 01:53:07;;;;;;;;;;;7.90;83.20;;;-151.14;100.00;62537.16;5093768;28;19920;-81
2022/11/14 01:55:55;;;;;;;;;;;7.90;83.30;;;-151.14;100.00;62537.16;5092171;28;20239;-81
2022/11/14 01:58:43;;;;;;;;;;;7.90;83.50;;;-151.14;100.00;62537.16;5093699;28;19920;-81
2022/11/14 02:01:30;;;;;;;;;;;7.90;83.30;;;-151.14;100.00;62537.16;5092383;28;19926;-81
2022/11/14 02:04:18;;;;;;;;;;;7.90;83.30;;;-151.14;100.00;62537.16;5093430;28;19920;-81
2022/11/14 02:07:05;;;;;;;;;;;7.90;83.40;;;-151.14;100.00;62537.16;5092277;28;20296;-81
2022/11/14 02:09:51;;;;;;;;;;;7.90;83.50;;;-151.14;100.00;62537.16;5092441;28;20200;-81
2022/11/14 02:12:39;;;;;;;;;;;7.90;83.30;;;-151.14;100.00;62537.16;5093579;28;19920;-81
2022/11/14 02:15:26;;;;;;;;;;;7.90;83.30;;;-151.14;100.00;62537.16;5091628;28;20234;-81
2022/11/14 02:18:13;;;;;;;;;;;7.90;83.30;;;-151.14;100.00;62537.16;5092221;28;20207;-81
2022/11/14 02:21:01;;;;;;;;;;;7.90;83.50;;;-151.14;100.00;62537.16;5092068;28;20097;-81
2022/11/14 02:23:47;;;;;;;;;;;7.90;83.40;;;-151.14;100.00;62537.16;5092776;28;20243;-81
2022/11/14 02:26:34;;;;;;;;;;;7.90;83.30;;;-151.14;100.00;62537.16;5091652;28;19920;-81
2022/11/14 02:29:21;;;;;;;;;;;7.90;83.50;;;-151.14;100.00;62537.16;5093355;28;19926;-81
2022/11/14 02:32:07;;;;;;;;;;;7.80;83.30;;;-151.14;100.00;62537.16;5092026;28;19920;-81
2022/11/14 02:34:54;;;;;;;;;;;7.80;83.50;;;-151.14;100.00;62537.16;5092654;28;19920;-81
2022/11/14 02:37:42;;;;;;;;;;;7.80;83.40;;;-151.14;100.00;62537.16;5093024;28;19920;-81
2022/11/14 02:40:28;;;;;;;;;;;7.80;83.30;;;-151.14;100.00;62537.16;5091811;28;19934;-82
2022/11/14 02:43:15;;;;;;;;;;;7.80;83.40;;;-151.14;100.00;62537.16;5092977;28;20203;-81
2022/11/14 02:46:01;;;;;;;;;;;7.80;83.20;;;-151.14;100.00;62537.16;5097401;28;19926;-81
2022/11/14 02:48:48;;;;;;;;;;;7.80;83.30;;;-151.14;100.00;62537.16;5113293;28;19920;-81
2022/11/14 02:51:35;;;;;;;;;;;7.80;83.30;;;-151.14;100.00;62537.16;5095145;28;19934;-81
2022/11/14 02:54:23;;;;;;;;;;;7.80;83.30;;;-151.14;100.00;62537.16;5112976;28;19920;-81
2022/11/14 02:57:09;;;;;;;;;;;7.80;83.20;;;-151.14;100.00;62537.16;5095005;28;19920;-81
2022/11/14 02:59:56;;;;;;;;;;;7.80;83.40;;;-151.14;100.00;62537.16;5113284;28;19920;-81
2022/11/14 03:02:43;;;;;;;;;;;7.80;83.40;;;-151.14;100.00;62537.16;5095066;28;19919;-81
2022/11/14 03:05:29;;;;;;;;;;;7.80;83.40;;;-151.14;100.00;62537.16;5094310;28;19920;-81
2022/11/14 03:08:16;;;;;;;;;;;7.80;83.50;;;-151.14;100.00;62537.16;5091339;28;19920;-81
2022/11/14 03:11:06;;;;;;;;;;;7.80;83.50;;;-151.14;100.00;62537.16;5091800;28;20301;-81
2022/11/14 03:13:53;;;;;;;;;;;7.80;83.30;;;-151.14;100.00;62537.16;5092513;28;19946;-81
2022/11/14 03:16:40;;;;;;;;;;;7.80;83.30;;;-151.14;100.00;62537.16;5090960;28;19946;-81
2022/11/14 03:19:26;;;;;;;;;;;7.80;83.30;;;-151.14;100.00;62537.16;5091269;28;19926;-81
2022/11/14 03:22:12;;;;;;;;;;;7.80;83.40;;;-151.14;100.00;62537.16;5092401;28;19920;-81
2022/11/14 03:24:59;;;;;;;;;;;7.80;83.30;;;-151.14;100.00;62537.16;5090631;28;19920;-81
2022/11/14 03:27:47;;;;;;;;;;;7.80;83.30;;;-151.14;100.00;62537.16;5091099;28;19920;-81
2022/11/14 03:30:33;;;;;;;;;;;7.80;83.20;;;-151.14;100.00;62537.16;5091187;28;19942;-81
2022/11/14 03:33:20;;;;;;;;;;;7.80;83.20;;;-151.14;100.00;62537.16;5092115;28;19922;-81
2022/11/14 03:36:07;;;;;;;;;;;7.80;83.20;;;-151.14;100.00;62537.16;5089949;28;19926;-81
2022/11/14 03:38:53;;;;;;;;;;;7.80;83.30;;;-151.14;100.00;62537.16;5074356;28;19927;-81
2022/11/14 03:41:40;;;;;;;;;;;7.80;83.10;;;-151.14;100.00;62537.16;5074210;28;19927;-81
2022/11/14 03:44:27;;;;;;;;;;;7.80;83.30;;;-151.14;100.00;62537.16;5091993;28;19920;-81
2022/11/14 03:47:14;;;;;;;;;;;7.80;83.10;;;-151.14;100.00;62537.16;5092042;28;19927;-81
2022/11/14 03:50:01;;;;;;;;;;;7.80;83.20;;;-151.14;100.00;62537.16;5074009;28;19920;-81
2022/11/14 03:52:49;;;;;;;;;;;7.80;83.30;;;-151.14;100.00;62537.16;5073045;28;19920;-81
2022/11/14 03:55:35;;;;;;;;;;;7.70;83.30;;;-151.14;100.00;62537.16;5073127;28;19920;-81
2022/11/14 03:58:22;;;;;;;;;;;7.70;83.20;;;-151.14;100.00;62537.16;5073978;28;19927;-81
2022/11/14 04:01:10;;;;;;;;;;;7.70;84.10;;;-151.14;100.00;62537.16;5091912;28;20118;-81
2022/11/14 04:03:56;;;;;;;;;;;7.70;83.40;;;-151.14;100.00;62537.16;5091608;28;19920;-81
2022/11/14 04:06:43;;;;;;;;;;;7.70;83.20;;;-151.14;100.00;62537.16;5073046;28;19920;-81
2022/11/14 04:09:36;;;;;;;;;;;7.70;83.30;;;-151.14;100.00;62537.16;5091600;28;19920;-81
2022/11/14 04:12:30;;;;;;;;;;;7.70;83.50;;;-151.14;100.00;62537.16;5091578;28;19920;-81
2022/11/14 04:15:17;;;;;;;;;;;7.70;83.30;;;-151.14;100.00;62537.16;5073144;28;19942;-81
2022/11/14 04:18:04;;;;;;;;;;;7.70;83.50;;;-151.14;100.00;62537.16;5073392;28;19920;-81
2022/11/14 04:20:51;;;;;;;;;;;7.70;83.30;;;-151.14;100.00;62537.16;5073419;28;20211;-81
2022/11/14 04:27:07;;;;;;;;;;;7.70;83.50;;;-151.14;100.00;62537.16;5091180;28;19920;-81
2022/11/14 04:29:57;;;;;;;;;;;7.70;83.50;;;-151.14;100.00;62537.16;5111609;28;19920;-81
2022/11/14 04:32:47;;;;;;;;;;;7.70;83.80;;;-151.14;100.00;62537.16;5093969;28;19926;-81
2022/11/14 04:35:37;;;;;;;;;;;7.70;83.60;;;-151.14;100.00;62537.16;5093160;28;19920;-81
2022/11/14 04:38:23;;;;;;;;;;;7.70;83.60;;;-151.14;100.00;62537.16;5111592;28;19926;-82
2022/11/14 04:41:36;;;;;;;;;;;7.70;83.60;;;-151.14;100.00;62537.16;5111651;28;19919;-81
2022/11/14 04:44:22;;;;;;;;;;;7.70;83.40;;;-151.14;100.00;62537.16;5111335;28;19920;-81
2022/11/14 04:47:09;;;;;;;;;;;7.70;83.60;;;-151.14;100.00;62537.16;5094497;28;19923;-81
2022/11/14 04:49:55;;;;;;;;;;;7.70;83.50;;;-151.14;100.00;62537.16;5094877;28;19926;-81
2022/11/14 04:52:43;;;;;;;;;;;7.70;83.50;;;-151.14;100.00;62537.16;5094891;28;20204;-81
2022/11/14 04:55:30;;;;;;;;;;;7.70;83.60;;;-151.14;100.00;62537.16;5094183;28;19927;-81
2022/11/14 04:58:17;;;;;;;;;;;7.70;83.60;;;-151.14;100.00;62537.16;5094650;28;19920;-81
2022/11/14 05:01:07;;;;;;;;;;;7.70;83.30;;;-151.14;100.00;62537.16;5094577;28;19920;-81
2022/11/14 05:03:54;;;;;;;;;;;7.70;83.50;;;-151.14;100.00;62537.16;5076702;28;19920;-81
2022/11/14 05:06:40;;;;;;;;;;;7.70;83.50;;;-151.14;100.00;62537.16;5094156;28;19934;-81
2022/11/14 05:09:28;;;;;;;;;;;7.70;83.50;;;-151.14;100.00;62537.16;5076473;28;19920;-81
2022/11/14 05:12:15;;;;;;;;;;;7.70;83.60;;;-151.14;100.00;62537.16;5076535;28;19927;-81
2022/11/14 05:15:01;;;;;;;;;;;7.60;83.50;;;-151.14;100.00;62537.16;5076055;28;20093;-81
2022/11/14 05:17:48;;;;;;;;;;;7.60;83.30;;;-151.14;100.00;62537.16;5094293;28;20212;-81
2022/11/14 05:20:34;;;;;;;;;;;7.60;83.30;;;-151.14;100.00;62537.16;5076451;28;19920;-81
2022/11/14 05:23:21;;;;;;;;;;;7.60;83.40;;;-151.14;100.00;62537.16;5096694;28;19934;-81
2022/11/14 05:26:10;;;;;;;;;;;7.60;83.50;;;-151.14;100.00;62537.16;5114272;28;19920;-81
2022/11/14 05:28:57;;;;;;;;;;;7.60;83.40;;;-151.14;100.00;62537.16;5096386;28;19926;-81
2022/11/14 05:31:44;;;;;;;;;;;7.60;83.50;;;-151.14;100.00;62537.16;5096509;28;19920;-81
2022/11/14 05:34:30;;;;;;;;;;;7.60;83.50;;;-151.14;100.00;62537.16;5085336;28;20119;-81
2022/11/14 05:37:16;;;;;;;;;;;7.60;83.50;;;-151.14;100.00;62537.16;5076157;28;19920;-81
2022/11/14 05:40:03;;;;;;;;;;;7.60;83.40;;;-151.14;100.00;62537.16;5094155;28;19920;-81
2022/11/14 05:42:54;;;;;;;;;;;7.60;83.60;;;-151.14;100.00;62537.16;5094068;28;19924;-81
2022/11/14 05:45:41;;;;;;;;;;;7.60;83.40;;;-151.14;100.00;62537.16;5093549;28;19927;-81
2022/11/14 05:48:27;;;;;;;;;;;7.60;83.50;;;-151.14;100.00;62537.16;5093811;28;20204;-81
2022/11/14 05:51:14;;;;;;;;;;;7.60;83.30;;;-151.14;100.00;62537.16;5114488;28;19920;-81
2022/11/14 05:54:01;;;;;;;;;;;7.60;83.40;;;-151.14;100.00;62537.16;5095748;28;19920;-81
2022/11/14 05:56:47;;;;;;;;;;;7.60;83.40;;;-151.14;100.00;62537.16;5095815;28;20208;-81
2022/11/14 05:59:35;;;;;;;;;;;7.60;83.50;;;-151.14;100.00;62537.16;5095150;28;19920;-81
2022/11/14 06:02:21;;;;;;;;;;;7.60;83.50;;;-151.14;100.00;62537.16;5095857;28;19920;-81
2022/11/14 06:05:08;;;;;;;;;;;7.60;83.50;;;-151.14;100.00;62537.16;5095312;28;19919;-81
2022/11/14 06:07:56;;;;;;;;;;;7.60;83.50;;;-151.14;100.00;62537.16;5113701;28;19919;-81
2022/11/14 06:10:42;;;;;;;;;;;7.60;83.50;;;-151.14;100.00;62537.16;5113901;28;19919;-81
2022/11/14 06:13:29;;;;;;;;;;;7.60;83.40;;;-151.14;100.00;62537.16;5113739;28;19920;-81
2022/11/14 06:16:18;;;;;;;;;;;7.60;83.50;;;-151.14;100.00;62537.16;5113490;28;19920;-81
2022/11/14 06:19:04;;;;;;;;;;;7.60;83.30;;;-151.14;100.00;62537.16;5113838;28;19919;-81
2022/11/14 06:21:51;;;;;;;;;;;7.60;83.30;;;-151.14;100.00;62537.16;5113745;28;19920;-81
2022/11/14 06:24:38;;;;;;;;;;;7.60;83.40;;;-151.14;100.00;62537.16;5113615;28;19920;-81
2022/11/14 06:27:24;;;;;;;;;;;7.60;83.30;;;-151.14;100.00;62537.16;5113646;28;19926;-80
2022/11/14 06:30:11;;;;;;;;;;;7.60;83.30;;;-151.14;100.00;62537.16;5113628;28;19919;-80
2022/11/14 06:32:59;;;;;;;;;;;7.60;83.20;;;-151.14;100.00;62537.16;5113565;28;20335;-82
2022/11/14 06:35:46;;;;;;;;;;;7.60;83.40;;;-151.14;100.00;62537.16;5113227;28;19927;-81
2022/11/14 06:38:33;;;;;;;;;;;7.60;83.30;;;-151.14;100.00;62537.16;5095358;28;19919;-81
2022/11/14 06:41:21;;;;;;;;;;;7.60;83.30;;;-151.14;100.00;62537.16;5096214;28;19919;-81
2022/11/14 06:44:08;;;;;;;;;;;7.60;83.30;;;-151.14;100.00;62537.16;5092934;28;20212;-81
2022/11/14 06:46:55;;;;;;;;;;;7.60;83.20;;;-151.14;100.00;62537.16;5074761;28;19920;-81
2022/11/14 06:49:43;;;;;;;;;;;7.60;83.20;;;-151.14;100.00;62537.16;5074958;28;19927;-81
2022/11/14 06:52:29;;;;;;;;;;;7.60;83.20;;;-151.14;100.00;62537.16;5074934;28;19927;-81
2022/11/14 06:55:16;;;;;;;;;;;7.60;83.30;;;-151.14;100.00;62537.16;5074357;28;20119;-81
2022/11/14 06:58:02;;;;;;;;;;;7.60;83.30;;;-151.14;100.00;62537.16;5092785;28;20238;-81
2022/11/14 07:00:49;;;;;;;;;;;7.60;83.20;;;-151.14;100.00;62537.16;5092858;28;20230;-81
2022/11/14 07:03:35;;;;;;;;;;;7.60;83.20;;;-151.14;100.00;62537.16;5092329;28;19920;-81
2022/11/14 07:06:24;;;;;;;;;;;7.60;83.20;;;-151.14;100.00;62537.16;5092302;28;19926;-81
2022/11/14 07:09:11;;;;;;;;;;;7.60;83.30;;;-151.14;100.00;62537.16;5074794;28;19920;-81
2022/11/14 07:11:57;;;;;;;;;;;7.60;83.10;;;-151.14;100.00;62537.16;5091386;28;19920;-81
2022/11/14 07:14:44;;;;;;;;;;;7.60;83.00;;;-151.14;100.00;62537.16;5091984;28;20097;-81
2022/11/14 07:17:30;;;;;;;;;;;7.60;83.00;;;-151.14;100.00;62537.16;5091214;28;19924;-81
2022/11/14 07:20:17;;;;;;;;;;;7.60;83.10;;;-151.14;100.00;62537.16;5092289;28;19926;-81
2022/11/14 07:23:05;;;;;;;;;;;7.60;83.00;;;-151.14;100.00;62537.16;5092402;28;20089;-81
2022/11/14 07:25:51;;;;;;;;;;;7.60;82.90;;;-151.14;100.00;62537.16;5092071;28;19920;-82
2022/11/14 07:28:39;;;;;;;;;;;7.60;83.00;;;-151.14;100.00;62537.16;5090952;28;19920;-81
2022/11/14 07:31:25;;;;;;;;;;;7.60;83.00;;;-151.14;100.00;62537.16;5092312;28;20226;-81
2022/11/14 07:34:12;;;;;;;;;;;7.60;82.90;;;-151.14;100.00;62537.16;5091893;28;19920;-81
2022/11/14 07:36:58;;;;;;;;;;;7.60;82.80;;;-151.14;100.00;62537.16;5090765;28;20265;-81
2022/11/14 07:39:46;;;;;;;;;;;7.60;83.00;;;-151.14;100.00;62537.16;5090934;28;20092;-81
2022/11/14 07:42:33;;;;;;;;;;;7.60;83.00;;;-151.14;100.00;62537.16;5092121;28;19926;-81
2022/11/14 07:45:19;;;;;;;;;;;7.60;82.90;;;-151.14;100.00;62537.16;5091744;28;19920;-81
2022/11/14 07:48:06;;;;;;;;;;;7.60;83.00;;;-151.14;100.00;62537.16;5073724;28;19920;-82
2022/11/14 07:50:52;;;;;;;;;;;7.60;83.00;;;-151.14;100.00;62537.16;5074186;28;19921;-81
2022/11/14 07:53:39;;;;;;;;;;;7.60;83.00;;;-151.14;100.00;62537.16;5091777;28;20212;-80
2022/11/14 07:56:27;;;;;;;;;;;7.60;83.00;;;-151.14;100.00;62537.16;5098679;28;19928;-81
2022/11/14 07:59:13;;;;;;;;;;;7.60;82.80;;;-151.14;100.00;62537.16;5094100;28;19981;-81
2022/11/14 08:02:00;;;;;;;;;;;7.60;82.80;;;-151.14;100.00;62537.16;5093960;28;19926;-81
2022/11/14 08:04:47;;;;;;;;;;;7.60;82.90;;;-151.14;100.00;62537.16;5111552;28;19920;-81
2022/11/14 08:07:33;;;;;;;;;;;7.60;82.70;;;-151.14;100.00;62537.16;5111822;28;19926;-81
2022/11/14 08:10:20;;;;;;;;;;;7.60;82.80;;;-151.14;100.00;62537.16;5094118;28;19926;-81
2022/11/14 08:13:09;;;;;;;;;;;7.60;82.50;;;-151.14;100.00;62537.16;5092532;28;20093;-81
2022/11/14 08:15:56;;;;;;;;;;;7.60;82.80;;;-151.14;100.00;62537.16;5073325;28;20116;-81
2022/11/14 08:18:43;;;;;;;;;;;7.60;82.70;;;-151.14;100.00;62537.16;5091950;28;19920;-81
2022/11/14 08:21:30;;;;;;;;;;;7.60;82.60;;;-151.14;100.00;62537.16;5091153;28;19920;-81
2022/11/14 08:24:16;;;;;;;;;;;7.60;82.60;;;-151.14;100.00;62537.16;5091446;28;19927;-81
2022/11/14 08:27:03;;;;;;;;;;;7.60;82.70;;;-151.14;100.00;62537.16;5091312;28;19920;-81
2022/11/14 08:29:51;;;;;;;;;;;7.70;82.70;;;-151.14;100.00;62537.16;5091338;28;19927;-81
2022/11/14 08:32:37;;;;;;;;;;;7.70;82.70;;;-151.14;100.00;62537.16;5091399;28;19920;-81
2022/11/14 08:35:23;;;;;;;;;;;7.60;82.60;;;-151.14;100.00;62537.16;5090897;28;19920;-81
2022/11/14 08:38:10;;;;;;;;;;;7.70;82.40;;;-151.14;100.00;62537.16;5073185;28;19921;-81
2022/11/14 08:40:58;;;;;;;;;;;7.70;82.70;;;-151.14;100.00;62537.16;5073483;28;19921;-81
2022/11/14 08:43:45;;;;;;;;;;;7.70;82.40;;;-151.14;100.00;62537.16;5090905;28;20205;-81
2022/11/14 08:46:33;;;;;;;;;;;7.70;82.40;;;-151.14;100.00;62537.16;5072785;28;19920;-81
2022/11/14 08:49:19;;;;;;;;;;;7.70;82.50;;;-151.14;100.00;62537.16;5073214;28;19920;-81
2022/11/14 08:52:05;;;;;;;;;;;7.70;82.50;;;-151.14;100.00;62537.16;5073043;28;19921;-81
2022/11/14 08:55:01;;;;;;;;;;;7.70;82.60;;;-151.14;100.00;62537.16;5090519;28;19927;-81
2022/11/14 08:57:48;;;;;;;;;;;7.70;82.60;;;-151.14;100.00;62537.16;5090946;28;19920;-81
2022/11/14 09:00:34;;;;;;;;;;;7.70;82.70;;;-151.14;100.00;62537.16;5072889;28;19930;-81
2022/11/14 09:03:39;;;;;;;;;;;7.70;83.30;;;-151.14;100.00;62537.16;5072747;28;19927;-81
2022/11/14 09:06:27;;;;;;;;;;;7.60;82.40;;;-151.14;100.00;62537.16;5072388;28;19920;-80
2022/11/14 09:09:14;;;;;;;;;;;7.70;82.60;;;-151.14;100.00;62537.16;5089255;28;19984;-80
2022/11/14 09:12:04;;;;;;;;;;;7.60;82.50;;;-151.14;100.00;62537.16;5089246;28;19927;-80
2022/11/14 09:14:51;;;;;;;;;;;7.70;82.60;;;-151.14;100.00;62537.16;5089092;28;19920;-80
2022/11/14 09:17:38;;;;;;;;;;;7.70;82.70;;;-151.14;100.00;62537.16;5096645;28;19939;-80
2022/11/14 09:20:28;;;;;;;;;;;7.60;82.50;;;-151.14;100.00;62537.16;5092958;28;19920;-81
2022/11/14 09:23:15;;;;;;;;;;;7.60;82.50;;;-151.14;100.00;62537.16;5099762;28;19920;-81
2022/11/14 09:26:03;;;;;;;;;;;7.70;82.40;;;-151.14;100.00;62537.16;5090336;28;20205;-80
2022/11/14 09:28:50;;;;;;;;;;;7.70;82.60;;;-151.14;100.00;62537.16;5090390;28;19926;-81
2022/11/14 09:31:37;;;;;;;;;;;7.70;82.50;;;-151.14;100.00;62537.16;5090530;28;19926;-81
2022/11/14 09:34:23;;;;;;;;;;;7.70;82.70;;;-151.14;100.00;62537.16;5073811;28;20146;-80
2022/11/14 09:37:12;;;;;;;;;;;7.70;82.80;;;-151.14;100.00;62537.16;5076083;28;19926;-80
2022/11/14 09:40:02;;;;;;;;;;;7.70;82.80;;;-151.14;100.00;62537.16;5076050;28;19934;-81
2022/11/14 09:43:09;;;;;;;;;;;7.70;82.70;;;-151.14;100.00;62537.16;5075989;28;19924;-81
2022/11/14 09:45:56;;;;;;;;;;;7.70;82.80;;;-151.14;100.00;62537.16;5093545;28;20107;-81
2022/11/14 09:48:42;;;;;;;;;;;7.70;82.70;;;-151.14;100.00;62537.16;5075655;28;19921;-80
2022/11/14 09:51:30;;;;;;;;;;;7.70;82.70;;;-151.14;100.00;62537.16;5075871;28;19920;-80
2022/11/14 09:54:20;;;;;;;;;;;7.70;82.70;;;-151.14;100.00;62537.16;5075500;28;19920;-80
2022/11/14 09:57:13;;;;;;;;;;;7.70;82.50;;;-151.14;100.00;62537.16;5075601;28;20304;-81
2022/11/14 10:00:00;;;;;;;;;;;7.80;82.60;;;-151.14;100.00;62537.16;5093560;28;19927;-81
2022/11/14 10:02:56;;;;;;;;;;;7.80;82.50;;;-151.14;100.00;62537.16;5075702;28;19921;-80
2022/11/14 10:05:50;;;;;;;;;;;7.80;82.50;;;-151.14;100.00;62537.16;5093228;28;19920;-81
2022/11/14 10:08:53;;;;;;;;;;;7.80;82.50;;;-151.14;100.00;62537.16;5075182;28;19920;-80
2022/11/14 10:11:43;;;;;;;;;;;7.80;82.50;;;-151.14;100.00;62537.16;5093395;28;19920;-81
2022/11/14 10:14:47;;;;;;;;;;;7.80;82.20;;;-151.14;100.00;62537.16;5075223;28;20124;-81
2022/11/14 10:17:55;;;;;;;;;;;7.90;82.00;;;-151.14;100.00;62537.16;5075349;28;20338;-81
2022/11/14 10:20:44;;;;;;;;;;;7.90;81.70;;;-151.14;100.00;62537.16;5075366;28;19920;-81
2022/11/14 10:23:33;;;;;;;;;;;7.90;81.70;;;-151.14;100.00;62537.16;5074999;28;19920;-80
2022/11/14 10:26:23;;;;;;;;;;;7.90;81.60;;;-151.14;100.00;62537.16;5074972;28;19926;-81
2022/11/14 10:29:29;;;;;;;;;;;8.00;81.60;;;-151.14;100.00;62537.16;5074873;28;19920;-80
2022/11/14 10:32:19;;;;;;;;;;;8.00;81.50;;;-151.14;100.00;62537.16;5075129;28;19926;-81
2022/11/14 10:35:10;;;;;;;;;;;8.00;81.40;;;-151.14;100.00;62537.16;5092417;28;19928;-81
2022/11/14 10:37:59;;;;;;;;;;;8.00;81.30;;;-151.14;100.00;62537.16;5075078;28;19921;-81
2022/11/14 10:40:47;;;;;;;;;;;8.00;81.20;;;-151.14;100.00;62537.16;5093048;28;19920;-80
2022/11/14 10:43:35;;;;;;;;;;;8.00;81.20;;;-151.14;100.00;62537.16;5092682;28;19926;-80
2022/11/14 10:46:27;;;;;;;;;;;8.00;81.20;;;-151.14;100.00;62537.16;5091054;28;19920;-80
2022/11/14 10:49:16;;;;;;;;;;;8.00;81.20;;;-151.14;100.00;62537.16;5091490;28;19927;-81
2022/11/14 10:52:04;;;;;;;;;;;8.00;81.10;;;-151.14;100.00;62537.16;5091671;28;19926;-80
2022/11/14 10:54:51;;;;;;;;;;;8.00;81.20;;;-151.14;100.00;62537.16;5090932;28;19948;-80
2022/11/14 10:57:39;;;;;;;;;;;8.00;81.20;;;-151.14;100.00;62537.16;5091475;28;19926;-80
2022/11/14 11:00:27;;;;;;;;;;;8.00;81.20;;;-151.14;100.00;62537.16;5091492;28;19927;-80
2022/11/14 11:03:15;;;;;;;;;;;8.00;81.20;;;-151.14;100.00;62537.16;5091322;28;19920;-80
2022/11/14 11:06:01;;;;;;;;;;;8.00;81.10;;;-151.14;100.00;62537.16;5091055;28;19935;-81
2022/11/14 11:11:55;;;;;;;;;;;8.00;81.20;;;-151.14;100.00;62537.16;5094747;28;20382;-80
2022/11/14 11:14:42;;;;;;;;;;;8.00;81.20;;;-151.14;100.00;62537.16;5093878;28;19920;-80
2022/11/14 11:17:28;;;;;;;;;;;8.00;81.20;;;-151.14;100.00;62537.16;5094457;28;19920;-81
2022/11/14 11:20:30;;;;;;;;;;;8.00;81.30;;;-151.14;100.00;62537.16;5112754;28;19919;-81
2022/11/14 11:23:26;;;;;;;;;;;8.00;81.30;;;-151.14;100.00;62537.16;5112453;28;20337;-81
2022/11/14 11:26:17;;;;;;;;;;;8.00;81.30;;;-151.14;100.00;62537.16;5094209;28;19919;-81
2022/11/14 11:29:07;;;;;;;;;;;8.00;81.20;;;-151.14;100.00;62537.16;5112222;28;19927;-81
2022/11/14 11:31:54;;;;;;;;;;;8.00;81.30;;;-151.14;100.00;62537.16;5092285;28;19920;-80
2022/11/14 11:34:41;;;;;;;;;;;8.00;81.20;;;-151.14;100.00;62537.16;5095993;28;20123;-80
2022/11/14 11:37:31;;;;;;;;;;;8.00;81.30;;;-151.14;100.00;62537.16;5094240;28;19919;-81
2022/11/14 11:40:19;;;;;;;;;;;8.00;81.40;;;-151.14;100.00;62537.16;5094240;28;20234;-80
2022/11/14 11:43:10;;;;;;;;;;;8.00;81.40;;;-151.14;100.00;62537.16;5094403;28;19926;-81
2022/11/14 11:45:57;;;;;;;;;;;8.00;81.40;;;-151.14;100.00;62537.16;5093986;28;19941;-81
2022/11/14 11:48:43;;;;;;;;;;;8.00;81.40;;;-151.14;100.00;62537.16;5094016;28;19919;-81
2022/11/14 11:51:30;;;;;;;;;;;8.00;81.40;;;-151.14;100.00;62537.16;5094036;28;19920;-81
2022/11/14 11:54:19;;;;;;;;;;;7.90;81.40;;;-151.14;100.00;62537.16;5093601;28;19927;-81
2022/11/14 11:57:10;;;;;;;;;;;7.90;81.40;;;-151.14;100.00;62537.16;5073188;28;19927;-81
2022/11/14 12:00:01;;;;;;;;;;;7.90;81.50;;;-151.14;100.00;62537.16;5090752;28;20208;-80
2022/11/14 12:02:48;;;;;;;;;;;7.90;81.50;;;-151.14;100.00;62537.16;5090560;28;19926;-80
2022/11/14 12:05:41;;;;;;;;;;;7.90;81.40;;;-151.14;100.00;62537.16;5090065;28;19920;-81
2022/11/14 12:08:31;;;;;;;;;;;7.90;81.50;;;-151.14;100.00;62537.16;5090253;28;20107;-80
2022/11/14 12:11:21;;;;;;;;;;;7.90;81.50;;;-151.14;100.00;62537.16;5091461;28;19927;-80
2022/11/14 12:14:52;;;;;;;;;;;7.90;81.50;;;-151.14;100.00;62537.16;5091246;28;19920;-80
2022/11/14 12:17:52;;;;;;;;;;;7.90;81.50;;;-151.14;100.00;62537.16;5063202;28;19926;-80
2022/11/14 12:20:48;;;;;;;;;;;7.90;81.60;;;-151.14;100.00;62537.16;5090332;28;19942;-80
2022/11/14 12:23:54;;;;;;;;;;;7.90;81.70;;;-151.14;100.00;62537.16;5090017;28;19939;-80
2022/11/14 12:26:48;;;;;;;;;;;7.90;81.60;;;-151.14;100.00;62537.16;5089766;28;19920;-80
2022/11/14 12:29:53;;;;;;;;;;;7.90;81.70;;;-151.14;100.00;62537.16;5090145;28;19927;-80
2022/11/14 12:32:43;;;;;;;;;;;7.80;81.60;;;-151.14;100.00;62537.16;5090225;28;19920;-80
2022/11/14 12:35:31;;;;;;;;;;;7.80;81.60;;;-151.14;100.00;62537.16;5089325;28;19926;-80
2022/11/14 12:38:19;;;;;;;;;;;7.80;81.70;;;-151.14;100.00;62537.16;5091019;28;19921;-80
2022/11/14 12:41:06;;;;;;;;;;;7.80;81.70;;;-151.14;100.00;62537.16;5090045;28;19927;-80
2022/11/14 12:44:00;;;;;;;;;;;7.80;81.60;;;-151.14;100.00;62537.16;5089700;28;20234;-80